Hickory Valley, Louisiana
Current Conditions -  °F | °C
As of 12:35 PM on Saturday 25 Oct 2014 (Local Time) from KRSN Reporting Station
Clear Clear  
Wind Chill: 25°   Ceiling: Unl
Heat Index: 26°   Visibility: 10mi
Dew Point: 15°   Wind: 5mph
Humidity: 54%   Direction: 270°W
Pressure: 30.19"   Gusts: NA
Location:  32.0547°N, 92.4144°W
Report Text: KRSN 251735Z AUTO 27004KT 10SM CLR 25/15 A3019 RMK AO2 T02460146
Loading
Personal Weather Stations






























Interactive Weather Map
Tropical Storm Tracking
New forecast layout! Learn more

10-Day Weather Forecast

Advertisements
Track Severe Weather on mobile